This is the latest recevied weather packets stored in our database for station/object W5DRO-13. If no packets are shown the sender has not sent any weather packets the latest 10 day(s).
| Time | Temp. | Humidity | Pressure | Rain* | Wind** | Luminosity | Snow |
|---|---|---|---|---|---|---|---|
| 1777722716 | 7.22° C | 92% | 1021.4 hPa | 0 mm | - | - | - |
| 1777722412 | 7.78° C | 92% | 1021.1 hPa | 0 mm | - | - | - |
| 1777722109 | 7.78° C | 91% | 1021.3 hPa | 0 mm | - | - | - |
| 1777721806 | 7.78° C | 91% | 1021.4 hPa | 0 mm | - | - | - |
| 1777721504 | 8.33° C | 91% | 1021.3 hPa | 0 mm | - | - | - |
| 1777721202 | 8.33° C | 91% | 1021.1 hPa | 0 mm | - | - | - |
| 1777720899 | 8.33° C | 90% | 1021.4 hPa | 0 mm | - | - | - |
| 1777720597 | 8.89° C | 89% | 1021.1 hPa | 0 mm | - | - | - |
| 1777720294 | 8.89° C | 89% | 1021.1 hPa | 0 mm | - | - | - |
| 1777719992 | 9.44° C | 89% | 1021.1 hPa | 0 mm | - | - | - |
| 1777719689 | 8.89° C | 89% | 1021.1 hPa | 0 mm | - | - | - |
| 1777719386 | 8.89° C | 90% | 1021.3 hPa | 0 mm | - | - | - |
| 1777719083 | 9.44° C | 90% | 1021.4 hPa | 0 mm | - | - | - |
| 1777718780 | 9.44° C | 89% | 1021.7 hPa | 0 mm | - | - | - |
| 1777718478 | 9.44° C | 89% | 1021.8 hPa | 0 mm | - | - | - |
| 1777718175 | 9.44° C | 88% | 1021.6 hPa | 0 mm | - | - | - |
| 1777717873 | 9.44° C | 86% | 1021.9 hPa | 0 mm | - | - | - |
| 1777717570 | 10° C | 85% | 1021.5 hPa | 0 mm | - | - | - |
| 1777717266 | 10° C | 83% | 1021.7 hPa | 0 mm | - | - | - |
| 1777716964 | 10° C | 81% | 1021.9 hPa | 0 mm | - | - | - |
| 1777716662 | 10° C | 81% | 1022.1 hPa | 0 mm | - | - | - |
| 1777716361 | 10° C | 81% | 1022 hPa | 0 mm | - | - | - |
| 1777716059 | 10° C | 80% | 1022.1 hPa | 0 mm | - | - | - |
| 1777715756 | 10.56° C | 79% | 1021.9 hPa | 0 mm | - | - | - |
| 1777715454 | 10° C | 78% | 1022.1 hPa | 0 mm | - | - | - |
* Rain latest hour (hover to see other rain measurements)
** Current wind speed in m/s (hover to see current wind gust speed)